createdAt,value
2018-06-03T00:02:57.350Z,100435.42
2018-06-03T00:06:01.536Z,100437.44
2018-06-03T00:09:05.908Z,100438.59
2018-06-03T00:12:09.905Z,100438.50
2018-06-03T00:15:12.817Z,100431.05
2018-06-03T00:18:15.801Z,100431.78
2018-06-03T00:21:36.022Z,100430.17
2018-06-03T00:24:39.399Z,100430.29
2018-06-03T00:27:42.315Z,100431.27
2018-06-03T00:30:46.971Z,100430.77
2018-06-03T00:36:52.362Z,100427.69
2018-06-03T00:39:55.305Z,100431.64
2018-06-03T00:46:00.593Z,100429.42
2018-06-03T00:49:04.998Z,100431.52
2018-06-03T00:52:07.887Z,100422.94
2018-06-03T00:55:10.775Z,100422.94
2018-06-03T00:58:13.671Z,100420.92
2018-06-03T01:01:16.596Z,100421.03
2018-06-03T01:04:19.514Z,100413.41
2018-06-03T01:07:22.439Z,100418.15
2018-06-03T01:10:25.365Z,100418.62
2018-06-03T01:13:28.286Z,100415.91
2018-06-03T01:16:31.191Z,100417.95
2018-06-03T01:19:34.094Z,100417.95
2018-06-03T01:22:36.984Z,100417.84
2018-06-03T01:25:39.937Z,100415.15
2018-06-03T01:28:42.848Z,100416.97
2018-06-03T01:31:45.749Z,100418.40
2018-06-03T01:34:48.657Z,100420.50
2018-06-03T01:37:51.618Z,100409.81
2018-06-03T01:40:54.538Z,100415.59
2018-06-03T01:43:57.598Z,100408.00
2018-06-03T01:47:00.487Z,100405.86
2018-06-03T01:50:03.481Z,100408.86
2018-06-03T01:53:06.406Z,100404.75
2018-06-03T01:56:09.293Z,100403.96
2018-06-03T01:59:12.237Z,100407.16
2018-06-03T02:02:15.253Z,100408.55
2018-06-03T02:05:18.237Z,100405.66
2018-06-03T02:08:21.188Z,100408.44
2018-06-03T02:11:24.130Z,100407.41
2018-06-03T02:14:27.034Z,100398.82
2018-06-03T02:17:30.049Z,100398.16
2018-06-03T02:20:32.947Z,100396.56
2018-06-03T02:23:35.872Z,100401.31
2018-06-03T02:26:38.853Z,100398.91
2018-06-03T02:29:41.824Z,100396.45
2018-06-03T02:32:44.737Z,100396.41
2018-06-03T02:35:47.677Z,100396.88
2018-06-03T02:38:50.569Z,100398.90
2018-06-03T02:41:53.482Z,100397.95
2018-06-03T02:44:56.449Z,100390.83
2018-06-03T02:47:59.366Z,100392.25
2018-06-03T02:51:02.299Z,100389.95
2018-06-03T02:54:05.244Z,100393.28
2018-06-03T02:57:08.139Z,100390.52
2018-06-03T03:00:11.047Z,100391.47
2018-06-03T03:03:13.976Z,100390.23
2018-06-03T03:06:16.886Z,100389.64
2018-06-03T03:09:19.857Z,100391.58
2018-06-03T03:12:22.860Z,100396.77
2018-06-03T03:15:25.746Z,100393.20
2018-06-03T03:18:28.683Z,100389.84
2018-06-03T03:21:31.585Z,100390.04
2018-06-03T03:24:34.486Z,100394.08
2018-06-03T03:27:37.382Z,100396.09
2018-06-03T03:30:40.322Z,100392.41
2018-06-03T03:33:43.196Z,100391.82
2018-06-03T03:36:46.125Z,100389.37
2018-06-03T03:39:49.062Z,100393.67
2018-06-03T03:42:51.962Z,100389.87
2018-06-03T03:45:54.892Z,100392.69
2018-06-03T03:48:57.815Z,100389.52
2018-06-03T03:52:00.745Z,100396.60
2018-06-03T03:55:03.720Z,100395.05
2018-06-03T03:58:06.630Z,100394.03
2018-06-03T04:01:09.508Z,100394.66
2018-06-03T04:04:12.441Z,100401.66
2018-06-03T04:07:15.364Z,100393.98
2018-06-03T04:10:18.262Z,100403.83
2018-06-03T04:13:21.170Z,100404.53
2018-06-03T04:16:24.077Z,100400.58
2018-06-03T04:19:27.001Z,100395.99
2018-06-03T04:22:29.919Z,100402.77
2018-06-03T04:25:32.868Z,100396.73
2018-06-03T04:28:35.774Z,100400.58
2018-06-03T04:31:38.726Z,100396.81
2018-06-03T04:34:41.611Z,100394.52
2018-06-03T04:37:44.566Z,100397.34
2018-06-03T04:40:47.485Z,100407.55
2018-06-03T04:43:50.432Z,100406.20
2018-06-03T04:46:53.405Z,100409.57
2018-06-03T04:50:03.033Z,100413.20
2018-06-03T04:53:05.963Z,100409.97
2018-06-03T04:56:08.908Z,100410.59
2018-06-03T04:59:11.845Z,100410.65
2018-06-03T05:02:14.813Z,100407.88
2018-06-03T05:05:18.499Z,100417.23
2018-06-03T05:08:22.895Z,100417.50
2018-06-03T05:11:26.557Z,100415.97
2018-06-03T05:14:35.495Z,100418.61
2018-06-03T05:17:38.585Z,100416.51
2018-06-03T05:20:41.557Z,100413.34
2018-06-03T05:23:44.440Z,100418.84
2018-06-03T05:26:47.719Z,100417.11
2018-06-03T05:29:52.157Z,100418.70
2018-06-03T05:32:56.439Z,100425.75
2018-06-03T05:35:59.363Z,100428.56
2018-06-03T05:39:03.229Z,100425.33
2018-06-03T05:42:06.178Z,100428.57
2018-06-03T05:45:09.768Z,100432.52
2018-06-03T05:48:13.960Z,100428.48
2018-06-03T05:51:16.847Z,100431.18
2018-06-03T05:54:20.228Z,100435.22
2018-06-03T05:57:25.324Z,100440.20
2018-06-03T06:00:28.267Z,100449.42
2018-06-03T06:03:31.326Z,100447.05
2018-06-03T06:06:35.481Z,100448.31
2018-06-03T06:09:38.386Z,100446.26
2018-06-03T06:12:42.807Z,100452.35
2018-06-03T06:15:47.687Z,100456.81
2018-06-03T06:18:51.769Z,100449.77
2018-06-03T06:21:55.840Z,100457.77
2018-06-03T06:24:58.778Z,100463.11
2018-06-03T06:28:01.936Z,100461.80
2018-06-03T06:31:04.886Z,100472.73
2018-06-03T06:34:08.112Z,100471.89
2018-06-03T06:37:11.183Z,100469.88
2018-06-03T06:40:15.520Z,100478.38
2018-06-03T06:43:18.575Z,100474.59
2018-06-03T06:46:22.382Z,100473.64
2018-06-03T06:49:26.069Z,100478.22
2018-06-03T06:52:30.326Z,100473.90
2018-06-03T06:55:33.541Z,100476.39
2018-06-03T06:58:37.502Z,100478.36
2018-06-03T07:01:40.550Z,100475.21
2018-06-03T07:04:45.644Z,100471.45
2018-06-03T07:07:49.712Z,100479.30
2018-06-03T07:10:52.673Z,100481.97
2018-06-03T07:13:56.336Z,100478.59
2018-06-03T07:16:59.284Z,100481.97
2018-06-03T07:20:02.541Z,100488.03
2018-06-03T07:23:05.845Z,100488.70
2018-06-03T07:26:08.740Z,100483.95
2018-06-03T07:29:11.675Z,100487.70
2018-06-03T07:32:14.792Z,100484.44
2018-06-03T07:35:18.238Z,100485.88
2018-06-03T07:38:21.487Z,100482.03
2018-06-03T07:41:24.506Z,100483.95
2018-06-03T07:44:27.429Z,100485.59
2018-06-03T07:47:30.358Z,100485.20
2018-06-03T07:50:33.280Z,100486.62
2018-06-03T07:53:37.220Z,100490.23
2018-06-03T07:56:40.112Z,100490.38
2018-06-03T07:59:44.530Z,100483.35
2018-06-03T08:02:47.517Z,100487.03
2018-06-03T08:05:50.464Z,100484.07
2018-06-03T08:08:53.731Z,100489.63
2018-06-03T08:11:56.661Z,100485.68
2018-06-03T08:15:00.720Z,100483.67
2018-06-03T08:18:03.657Z,100488.53
2018-06-03T08:21:12.165Z,100483.70
2018-06-03T08:24:15.275Z,100472.16
2018-06-03T08:27:19.089Z,100472.34
2018-06-03T08:30:21.991Z,100476.95
2018-06-03T08:33:24.962Z,100473.93
2018-06-03T08:36:28.171Z,100479.48
2018-06-03T08:39:31.699Z,100469.48
2018-06-03T08:42:34.607Z,100471.63
2018-06-03T08:45:37.632Z,100470.35
2018-06-03T08:48:40.577Z,100465.25
2018-06-03T08:51:43.507Z,100471.14
2018-06-03T08:54:46.453Z,100475.58
2018-06-03T08:57:49.462Z,100472.84
2018-06-03T09:00:52.365Z,100476.53
2018-06-03T09:03:56.275Z,100474.88
2018-06-03T09:06:59.233Z,100477.70
2018-06-03T09:13:04.913Z,100479.99
2018-06-03T09:19:08.653Z,100481.41
2018-06-03T09:22:11.567Z,100473.61
2018-06-03T09:25:14.478Z,100471.38
2018-06-03T09:28:17.440Z,100471.89
2018-06-03T09:31:20.462Z,100466.19
2018-06-03T09:34:23.374Z,100461.52
2018-06-03T09:37:26.279Z,100470.84
2018-06-03T09:40:29.172Z,100461.48
2018-06-03T09:43:32.087Z,100465.71
2018-06-03T09:46:35.029Z,100465.13
2018-06-03T09:49:37.990Z,100467.22
2018-06-03T09:52:40.930Z,100352.65
2018-06-03T09:55:43.893Z,100466.98
2018-06-03T09:58:46.833Z,100462.91
2018-06-03T10:01:49.735Z,100453.61
2018-06-03T10:04:52.667Z,100459.38
2018-06-03T10:07:55.598Z,100451.92
2018-06-03T10:10:58.507Z,100448.98
2018-06-03T10:14:01.450Z,100452.25
2018-06-03T10:17:04.362Z,100444.95
2018-06-03T10:20:07.270Z,100449.23
2018-06-03T10:23:10.195Z,100444.30
2018-06-03T10:26:13.115Z,100457.03
2018-06-03T10:29:16.037Z,100453.56
2018-06-03T10:32:18.946Z,100447.80
2018-06-03T10:35:21.831Z,100454.42
2018-06-03T10:38:24.762Z,100458.19
2018-06-03T10:41:27.750Z,100459.16
2018-06-03T10:44:30.632Z,100453.77
2018-06-03T10:47:33.522Z,100445.16
2018-06-03T10:50:36.409Z,100448.62
2018-06-03T10:53:39.516Z,100450.95
2018-06-03T10:56:42.441Z,100445.11
2018-06-03T10:59:45.448Z,100448.18
2018-06-03T11:02:48.397Z,100438.61
2018-06-03T11:05:51.336Z,100433.70
2018-06-03T11:08:54.256Z,100457.69
2018-06-03T11:11:57.186Z,100439.53
2018-06-03T11:15:00.150Z,100434.05
2018-06-03T11:18:03.206Z,100436.86
2018-06-03T11:21:06.134Z,100434.98
2018-06-03T11:24:09.169Z,100429.95
2018-06-03T11:27:12.079Z,100435.50
2018-06-03T11:30:15.013Z,100430.64
2018-06-03T11:33:17.998Z,100427.02
2018-06-03T11:36:20.968Z,100429.81
2018-06-03T11:39:23.923Z,100429.92
2018-06-03T11:42:26.859Z,100431.97
2018-06-03T11:45:29.777Z,100431.81
2018-06-03T11:48:32.675Z,100433.23
2018-06-03T11:51:35.643Z,100429.69
2018-06-03T11:54:38.526Z,100431.77
2018-06-03T11:58:01.589Z,100431.47
2018-06-03T12:01:04.505Z,100423.04
2018-06-03T12:04:07.430Z,100416.05
2018-06-03T12:07:10.349Z,100423.67
2018-06-03T12:10:13.326Z,100418.86
2018-06-03T12:13:16.215Z,100414.80
2018-06-03T12:16:19.136Z,100409.23
2018-06-03T12:19:22.090Z,100410.36
2018-06-03T12:22:24.984Z,100402.38
2018-06-03T12:25:27.949Z,100408.40
2018-06-03T12:28:30.926Z,100405.14
2018-06-03T12:31:33.853Z,100401.53
2018-06-03T12:34:36.777Z,100397.10
2018-06-03T12:37:40.160Z,100400.05
2018-06-03T12:40:43.090Z,100398.72
2018-06-03T12:43:46.015Z,100402.83
2018-06-03T12:46:48.910Z,100401.71
2018-06-03T12:49:51.842Z,100394.19
2018-06-03T12:52:54.761Z,100399.09
2018-06-03T12:55:57.696Z,100387.28
2018-06-03T12:59:00.641Z,100378.89
2018-06-03T13:02:03.611Z,100385.69
2018-06-03T13:05:06.534Z,100386.67
2018-06-03T13:08:09.494Z,100380.41
2018-06-03T13:11:12.399Z,100375.87
2018-06-03T13:14:15.344Z,100374.09
2018-06-03T13:17:18.304Z,100381.40
2018-06-03T13:20:21.165Z,100375.50
2018-06-03T13:23:24.179Z,100369.14
2018-06-03T13:26:27.037Z,100373.50
2018-06-03T13:29:29.933Z,100365.55
2018-06-03T13:32:32.884Z,100369.55
2018-06-03T13:35:35.828Z,100358.80
2018-06-03T13:38:38.747Z,100362.27
2018-06-03T13:41:41.690Z,100361.98
2018-06-03T13:44:44.623Z,100358.11
2018-06-03T13:47:47.598Z,100347.25
2018-06-03T13:50:50.577Z,100344.00
2018-06-03T13:53:53.589Z,100336.34
2018-06-03T13:56:56.530Z,100255.56
2018-06-03T13:59:59.507Z,100339.42
2018-06-03T14:03:02.516Z,100333.03
2018-06-03T14:06:05.567Z,100328.94
2018-06-03T14:09:08.505Z,100322.83
2018-06-03T14:12:11.487Z,100316.94
2018-06-03T14:15:14.463Z,100315.16
2018-06-03T14:18:18.258Z,100302.36
2018-06-03T14:21:21.227Z,100293.70
2018-06-03T14:24:24.247Z,100293.86
2018-06-03T14:27:27.250Z,100296.74
2018-06-03T14:30:32.519Z,100298.77
2018-06-03T14:33:35.520Z,100300.03
2018-06-03T14:36:38.774Z,100291.76
2018-06-03T14:39:41.787Z,100289.94
2018-06-03T14:42:44.773Z,100288.27
2018-06-03T14:45:47.789Z,100283.20
2018-06-03T14:48:50.733Z,100275.97
2018-06-03T14:51:53.889Z,100275.97
2018-06-03T14:54:56.845Z,100271.50
2018-06-03T14:58:00.665Z,100265.38
2018-06-03T15:01:04.961Z,100264.09
2018-06-03T15:04:08.036Z,100260.19
2018-06-03T15:07:11.546Z,100252.81
2018-06-03T15:10:15.484Z,100250.72
2018-06-03T15:13:18.497Z,100244.55
2018-06-03T15:16:21.461Z,100239.14
2018-06-03T15:19:24.446Z,100231.29
2018-06-03T15:22:27.419Z,100230.90
2018-06-03T15:25:30.425Z,100229.42
2018-06-03T15:28:33.414Z,100227.03
2018-06-03T15:31:36.449Z,100222.23
2018-06-03T15:34:39.407Z,100220.50
2018-06-03T15:37:42.423Z,100216.92
2018-06-03T15:40:45.723Z,100211.35
2018-06-03T15:43:48.700Z,100206.09
2018-06-03T15:46:51.641Z,100206.17
2018-06-03T15:49:54.610Z,100202.31
2018-06-03T15:52:57.574Z,100199.61
2018-06-03T15:56:00.576Z,100200.44
2018-06-03T15:59:03.521Z,100201.53
2018-06-03T16:02:06.306Z,100195.47
2018-06-03T16:05:09.578Z,100196.08
2018-06-03T16:08:12.944Z,100191.38
2018-06-03T16:11:15.981Z,100188.70
2018-06-03T16:14:18.877Z,100188.05
2018-06-03T16:17:21.817Z,100188.17
2018-06-03T16:20:24.757Z,100183.52
2018-06-03T16:23:27.657Z,100185.08
2018-06-03T16:26:30.559Z,100183.85
2018-06-03T16:29:33.650Z,100179.99
2018-06-03T16:32:36.737Z,100176.27
2018-06-03T16:35:39.610Z,100176.16
2018-06-03T16:38:42.517Z,100176.31
2018-06-03T16:41:45.457Z,100174.34
2018-06-03T16:44:48.358Z,100170.40
2018-06-03T16:47:51.362Z,100168.69
2018-06-03T16:50:54.579Z,100162.03
2018-06-03T16:53:57.515Z,100169.42
2018-06-03T16:57:00.457Z,100167.48
2018-06-03T17:00:03.709Z,100162.17
2018-06-03T17:03:06.617Z,100163.89
2018-06-03T17:06:09.560Z,100162.16
2018-06-03T17:09:12.437Z,100160.30
2018-06-03T17:12:15.309Z,100150.94
2018-06-03T17:15:18.229Z,100157.48
2018-06-03T17:18:21.158Z,100148.11
2018-06-03T17:21:24.096Z,100152.43
2018-06-03T17:24:27.069Z,100148.59
2018-06-03T17:27:30.100Z,100148.73
2018-06-03T17:30:33.026Z,100149.34
2018-06-03T17:33:35.977Z,100144.92
2018-06-03T17:36:38.944Z,100143.77
2018-06-03T17:39:41.995Z,100138.37
2018-06-03T17:42:44.894Z,100132.23
2018-06-03T17:45:47.865Z,100131.03
2018-06-03T17:48:50.774Z,100136.08
2018-06-03T17:51:55.300Z,100128.98
2018-06-03T17:54:58.448Z,100156.77
2018-06-03T17:58:01.617Z,100127.44
2018-06-03T18:01:05.131Z,100124.48
2018-06-03T18:04:08.221Z,100120.67
2018-06-03T18:07:11.853Z,100117.09
2018-06-03T18:10:15.677Z,100121.89
2018-06-03T18:13:19.402Z,100117.56
2018-06-03T18:16:22.367Z,100117.33
2018-06-03T18:19:26.153Z,100119.10
2018-06-03T18:22:29.542Z,100115.63
2018-06-03T18:25:33.270Z,100118.48
2018-06-03T18:28:39.002Z,100104.82
2018-06-03T18:31:42.547Z,100111.72
2018-06-03T18:34:46.265Z,100108.86
2018-06-03T18:37:49.448Z,100112.56
2018-06-03T18:40:53.059Z,100119.22
2018-06-03T18:43:56.066Z,100106.95
2018-06-03T18:46:59.263Z,100109.14
2018-06-03T18:50:02.830Z,100110.75
2018-06-03T18:53:06.701Z,100110.34
2018-06-03T18:56:09.714Z,100115.42
2018-06-03T18:59:12.854Z,100127.31
2018-06-03T19:02:15.819Z,100121.53
2018-06-03T19:05:20.472Z,100118.94
2018-06-03T19:08:23.570Z,100115.39
2018-06-03T19:11:26.936Z,100117.31
2018-06-03T19:14:29.839Z,100122.23
2018-06-03T19:17:33.038Z,100120.14
2018-06-03T19:20:35.977Z,100117.09
2018-06-03T19:23:39.264Z,100122.98
2018-06-03T19:26:42.163Z,100120.45
2018-06-03T19:29:45.059Z,100118.59
2018-06-03T19:32:48.083Z,100109.00
2018-06-03T19:35:51.017Z,100117.55
2018-06-03T19:38:55.223Z,100103.13
2018-06-03T19:41:58.456Z,100114.45
2018-06-03T19:45:01.552Z,100110.22
2018-06-03T19:48:05.487Z,100121.08
2018-06-03T19:51:08.810Z,100120.55
2018-06-03T19:54:12.097Z,100124.66
2018-06-03T19:57:15.205Z,100122.87
2018-06-03T20:00:18.721Z,100125.23
2018-06-03T20:03:22.409Z,100127.98
2018-06-03T20:06:25.798Z,100124.22
2018-06-03T20:09:29.182Z,100123.86
2018-06-03T20:12:32.645Z,100130.22
2018-06-03T20:15:35.558Z,100125.41
2018-06-03T20:18:38.889Z,100125.25
2018-06-03T20:21:41.831Z,100130.00
2018-06-03T20:24:44.978Z,100124.49
2018-06-03T20:27:48.606Z,100122.89
2018-06-03T20:30:52.345Z,100124.08
2018-06-03T20:33:56.129Z,100135.13
2018-06-03T20:36:59.524Z,100130.17
2018-06-03T20:40:03.060Z,100130.12
2018-06-03T20:43:06.009Z,100136.16
2018-06-03T20:46:09.325Z,100138.84
2018-06-03T20:49:12.277Z,100138.63
2018-06-03T20:52:16.366Z,100135.06
2018-06-03T20:55:19.728Z,100141.45
2018-06-03T20:58:23.345Z,100135.00
2018-06-03T21:01:26.307Z,100134.92
2018-06-03T21:04:29.249Z,100137.06
2018-06-03T21:07:32.243Z,100136.98
2018-06-03T21:10:35.209Z,100136.73
2018-06-03T21:13:38.118Z,100136.73
2018-06-03T21:16:41.031Z,100136.56
2018-06-03T21:19:44.062Z,100135.22
2018-06-03T21:22:46.986Z,100135.71
2018-06-03T21:25:49.989Z,100134.18
2018-06-03T21:28:53.028Z,100138.63
2018-06-03T21:31:56.114Z,100133.45
2018-06-03T21:34:59.088Z,100137.38
2018-06-03T21:38:03.949Z,100129.88
2018-06-03T21:41:06.924Z,100129.98
2018-06-03T21:44:09.805Z,100127.95
2018-06-03T21:50:21.396Z,100133.83
2018-06-03T21:53:24.282Z,100128.65
2018-06-03T21:56:27.843Z,100126.53
2018-06-03T21:59:30.783Z,100123.75
2018-06-03T22:02:33.659Z,100129.52
2018-06-03T22:05:36.608Z,100127.78
2018-06-03T22:08:39.524Z,100125.39
2018-06-03T22:11:42.430Z,100120.80
2018-06-03T22:14:45.373Z,100124.05
2018-06-03T22:17:48.324Z,100121.00
2018-06-03T22:20:51.260Z,100123.09
2018-06-03T22:23:54.163Z,100124.64
2018-06-03T22:26:57.109Z,100121.74
2018-06-03T22:30:00.017Z,100122.70
2018-06-03T22:33:02.937Z,100119.73
2018-06-03T22:36:05.866Z,100117.34
2018-06-03T22:39:08.805Z,100116.56
2018-06-03T22:42:11.714Z,100113.19
2018-06-03T22:45:14.620Z,100117.05
2018-06-03T22:48:17.552Z,100116.08
2018-06-03T22:51:20.462Z,100118.02
2018-06-03T22:54:23.396Z,100119.64
2018-06-03T22:57:48.525Z,100112.91
2018-06-03T23:00:51.474Z,100106.95
2018-06-03T23:03:54.349Z,100114.27
2018-06-03T23:06:57.285Z,100114.34
2018-06-03T23:10:00.191Z,100108.41
2018-06-03T23:13:03.105Z,100111.27
2018-06-03T23:16:06.004Z,100111.05
2018-06-03T23:19:08.925Z,100101.20
2018-06-03T23:22:11.894Z,100101.54
2018-06-03T23:25:14.845Z,100096.84
2018-06-03T23:28:17.764Z,100101.64
2018-06-03T23:31:20.679Z,100095.11
2018-06-03T23:34:23.606Z,100096.34
2018-06-03T23:37:26.537Z,100094.59
2018-06-03T23:40:29.457Z,100079.23
2018-06-03T23:43:32.342Z,100088.38
2018-06-03T23:46:35.276Z,100085.41
2018-06-03T23:49:38.208Z,100080.22
2018-06-03T23:52:41.157Z,100085.50
2018-06-03T23:55:44.043Z,100082.72
2018-06-03T23:58:46.935Z,100082.81
